Time;durP1;ratioP1;P1;durP2;ratioP2;P2;SDS_P1;SDS_P2;PMS_P1;PMS_P2;Temp;Humidity;BMP_temperature;BMP_pressure;BME280_temperature;BME280_humidity;BME280_pressure;Samples;Min_cycle;Max_cycle;Signal;HPM_P1;HPM_P2
2022/03/31 00:00:32;;;;;;;20.40;14.25;;;;;;;;;;5114311;28;20051;-57
2022/03/31 00:02:59;;;;;;;16.73;13.13;;;;;;;;;;5112932;28;20027;-57
2022/03/31 00:05:26;;;;;;;16.63;12.88;;;;;;;;;;5114406;28;20069;-57
2022/03/31 00:07:58;;;;;;;19.13;12.95;;;;;;;;;;5112361;28;20035;-58
2022/03/31 00:10:25;;;;;;;19.63;14.65;;;;;;;;;;5112072;28;20402;-56
2022/03/31 00:12:56;;;;;;;17.58;13.38;;;;;;;;;;5113770;28;20103;-58
2022/03/31 00:15:35;;;;;;;20.92;14.02;;;;;;;;;;5114479;28;20453;-57
2022/03/31 00:18:05;;;;;;;20.58;12.68;;;;;;;;;;5113241;28;20063;-57
2022/03/31 00:20:39;;;;;;;19.55;14.38;;;;;;;;;;5113772;28;20135;-58
2022/03/31 00:23:19;;;;;;;19.05;13.27;;;;;;;;;;5113759;28;20028;-57
2022/03/31 00:25:45;;;;;;;13.43;11.73;;;;;;;;;;5112776;28;20415;-58
2022/03/31 00:28:12;;;;;;;18.52;14.35;;;;;;;;;;5113665;28;20032;-57
2022/03/31 00:30:38;;;;;;;16.20;12.57;;;;;;;;;;5111849;28;20024;-57
2022/03/31 00:33:12;;;;;;;20.25;13.38;;;;;;;;;;5113773;28;20055;-58
2022/03/31 00:35:44;;;;;;;18.42;12.88;;;;;;;;;;5113485;28;20019;-57
2022/03/31 00:38:11;;;;;;;21.33;14.32;;;;;;;;;;5113440;28;20020;-57
2022/03/31 00:40:37;;;;;;;18.65;14.60;;;;;;;;;;5116310;28;20484;-58
2022/03/31 00:43:04;;;;;;;23.00;14.80;;;;;;;;;;5115706;28;20023;-57
2022/03/31 00:45:34;;;;;;;19.60;14.20;;;;;;;;;;5117827;28;20110;-57
2022/03/31 00:48:03;;;;;;;20.95;16.65;;;;;;;;;;5115717;28;20027;-58
2022/03/31 00:50:36;;;;;;;19.88;15.15;;;;;;;;;;5117313;28;20467;-58
2022/03/31 00:53:03;;;;;;;22.52;15.32;;;;;;;;;;5099874;28;20076;-58
2022/03/31 00:55:29;;;;;;;20.42;15.10;;;;;;;;;;5118027;28;20102;-57
2022/03/31 00:57:59;;;;;;;16.65;13.88;;;;;;;;;;5115607;28;20039;-57
2022/03/31 01:00:29;;;;;;;21.45;14.73;;;;;;;;;;5117004;28;20030;-57
2022/03/31 01:02:55;;;;;;;20.33;14.90;;;;;;;;;;5117694;28;20051;-58
2022/03/31 01:05:22;;;;;;;22.35;15.70;;;;;;;;;;5116667;28;20548;-57
2022/03/31 01:07:49;;;;;;;22.45;15.10;;;;;;;;;;5116584;28;20389;-58
2022/03/31 01:10:18;;;;;;;17.08;15.02;;;;;;;;;;5115706;28;20027;-57
2022/03/31 01:12:46;;;;;;;22.90;15.23;;;;;;;;;;5116584;28;20024;-55
2022/03/31 01:15:15;;;;;;;20.50;14.05;;;;;;;;;;5098532;28;20338;-57
2022/03/31 01:17:45;;;;;;;17.00;13.52;;;;;;;;;;5117034;28;20024;-58
2022/03/31 01:20:15;;;;;;;15.63;13.50;;;;;;;;;;5116212;28;20055;-58
2022/03/31 01:22:42;;;;;;;17.02;13.27;;;;;;;;;;5115271;28;20024;-57
2022/03/31 01:25:09;;;;;;;17.90;14.38;;;;;;;;;;5116541;28;20032;-58
2022/03/31 01:27:38;;;;;;;18.85;13.05;;;;;;;;;;5116443;28;20092;-58
2022/03/31 01:30:08;;;;;;;16.30;13.18;;;;;;;;;;5097801;28;20430;-57
2022/03/31 01:32:35;;;;;;;18.27;11.68;;;;;;;;;;5116078;28;20107;-58
2022/03/31 01:35:06;;;;;;;18.70;13.57;;;;;;;;;;5116462;28;20031;-58
2022/03/31 01:37:35;;;;;;;21.25;13.13;;;;;;;;;;5114887;28;20024;-58
2022/03/31 01:40:04;;;;;;;15.73;11.40;;;;;;;;;;5115683;28;20051;-57
2022/03/31 01:42:36;;;;;;;14.77;11.63;;;;;;;;;;5115635;28;20030;-58
2022/03/31 01:45:08;;;;;;;14.48;10.95;;;;;;;;;;5116736;28;20026;-57
2022/03/31 01:47:40;;;;;;;15.82;12.63;;;;;;;;;;5115730;28;20040;-57
2022/03/31 01:50:09;;;;;;;15.63;12.57;;;;;;;;;;5116109;28;20115;-56
2022/03/31 01:52:38;;;;;;;14.60;11.35;;;;;;;;;;5114256;28;20023;-57
2022/03/31 01:55:08;;;;;;;19.15;11.35;;;;;;;;;;5116111;28;20036;-58
2022/03/31 01:57:45;;;;;;;15.27;11.63;;;;;;;;;;5115604;28;20031;-58
2022/03/31 02:00:14;;;;;;;17.95;12.25;;;;;;;;;;5114691;28;20035;-58
2022/03/31 02:02:42;;;;;;;14.15;11.05;;;;;;;;;;5115944;28;20030;-58
2022/03/31 02:05:14;;;;;;;16.98;11.60;;;;;;;;;;5115174;28;20036;-58
2022/03/31 02:07:45;;;;;;;18.20;13.52;;;;;;;;;;5114276;28;20027;-57
2022/03/31 02:10:25;;;;;;;16.33;11.48;;;;;;;;;;5116018;28;20047;-57
2022/03/31 02:12:54;;;;;;;14.45;12.40;;;;;;;;;;5114974;28;20034;-58
2022/03/31 02:15:40;;;;;;;15.88;12.20;;;;;;;;;;5116047;28;20088;-58
2022/03/31 02:18:09;;;;;;;14.18;11.27;;;;;;;;;;5114087;28;20024;-56
2022/03/31 02:20:39;;;;;;;19.00;10.88;;;;;;;;;;5115363;28;20536;-58
2022/03/31 02:23:12;;;;;;;13.38;10.20;;;;;;;;;;5114422;28;20043;-57
2022/03/31 02:25:38;;;;;;;15.95;11.95;;;;;;;;;;5113992;28;20114;-57
2022/03/31 02:28:05;;;;;;;15.77;12.32;;;;;;;;;;5114073;28;20035;-58
2022/03/31 02:30:43;;;;;;;16.13;11.57;;;;;;;;;;5115369;28;20024;-57
2022/03/31 02:33:09;;;;;;;15.55;11.00;;;;;;;;;;5114277;28;20023;-57
2022/03/31 02:35:46;;;;;;;13.40;11.40;;;;;;;;;;5113218;28;20078;-58
2022/03/31 02:38:24;;;;;;;;;;;;;;;;;;;;;
2022/03/31 02:40:56;;;;;;;18.02;11.43;;;;;;;;;;5115002;28;20493;-56
2022/03/31 02:43:41;;;;;;;12.13;10.68;;;;;;;;;;5115176;28;20034;-57
2022/03/31 02:46:13;;;;;;;16.05;10.70;;;;;;;;;;5113376;28;20062;-57
2022/03/31 02:48:43;;;;;;;17.15;13.57;;;;;;;;;;5114184;28;20019;-56
2022/03/31 02:51:12;;;;;;;14.00;11.30;;;;;;;;;;5113648;28;20112;-57
2022/03/31 02:56:39;;;;;;;;;;;;;;;;;;;;;
2022/03/31 02:59:11;;;;;;;15.88;11.90;;;;;;;;;;5112564;28;20495;-55
2022/03/31 03:01:52;;;;;;;10.02;8.52;;;;;;;;;;5113658;28;20106;-55
2022/03/31 03:04:25;;;;;;;16.27;11.73;;;;;;;;;;5113430;28;20024;-57
2022/03/31 03:06:54;;;;;;;12.70;11.20;;;;;;;;;;5113851;28;20358;-57
2022/03/31 03:09:31;;;;;;;18.55;13.90;;;;;;;;;;5113740;28;20030;-57
2022/03/31 03:12:05;;;;;;;14.35;11.18;;;;;;;;;;5113050;28;20153;-55
2022/03/31 03:14:36;;;;;;;11.20;9.90;;;;;;;;;;5113166;28;20031;-57
2022/03/31 03:17:13;;;;;;;13.32;10.98;;;;;;;;;;5115046;28;20126;-58
2022/03/31 03:19:55;;;;;;;13.13;11.18;;;;;;;;;;5114439;28;20044;-57
2022/03/31 03:22:26;;;;;;;14.18;11.52;;;;;;;;;;5113586;28;20452;-55
2022/03/31 03:24:59;;;;;;;15.10;11.00;;;;;;;;;;5114613;28;20049;-56
2022/03/31 03:27:31;;;;;;;18.35;13.13;;;;;;;;;;5114420;28;20039;-57
2022/03/31 03:30:02;;;;;;;16.65;12.57;;;;;;;;;;5113142;28;20031;-57
2022/03/31 03:32:31;;;;;;;19.70;14.10;;;;;;;;;;5114423;28;20460;-58
2022/03/31 03:35:00;;;;;;;17.02;11.90;;;;;;;;;;5114495;28;20032;-56
2022/03/31 03:37:32;;;;;;;16.95;13.35;;;;;;;;;;5114775;28;20024;-57
2022/03/31 03:40:04;;;;;;;16.88;13.02;;;;;;;;;;5113902;28;20054;-56
2022/03/31 03:42:31;;;;;;;16.77;12.88;;;;;;;;;;5114445;28;20038;-55
2022/03/31 03:45:04;;;;;;;13.02;11.07;;;;;;;;;;5114287;28;20461;-57
2022/03/31 03:47:30;;;;;;;17.15;12.75;;;;;;;;;;5113760;28;20035;-55
2022/03/31 03:50:14;;;;;;;17.83;13.88;;;;;;;;;;5113120;28;20411;-57
2022/03/31 03:52:41;;;;;;;18.15;13.43;;;;;;;;;;5112516;28;20077;-55
2022/03/31 03:55:17;;;;;;;16.63;13.48;;;;;;;;;;5114525;28;20076;-55
2022/03/31 03:57:45;;;;;;;16.88;13.90;;;;;;;;;;5114264;28;20035;-54
2022/03/31 04:00:12;;;;;;;17.90;13.10;;;;;;;;;;5112128;28;20047;-57
2022/03/31 04:02:41;;;;;;;17.20;14.45;;;;;;;;;;5114424;28;20114;-55
2022/03/31 04:05:08;;;;;;;17.55;12.80;;;;;;;;;;5113386;28;20027;-56
2022/03/31 04:07:41;;;;;;;21.42;12.93;;;;;;;;;;5112681;28;20023;-58
2022/03/31 04:10:10;;;;;;;17.88;13.20;;;;;;;;;;5112325;28;20035;-58
2022/03/31 04:12:46;;;;;;;15.35;13.70;;;;;;;;;;5113698;28;20039;-57
2022/03/31 04:15:16;;;;;;;17.15;13.27;;;;;;;;;;5099136;28;20024;-57
2022/03/31 04:17:51;;;;;;;13.60;12.02;;;;;;;;;;5115562;28;20038;-57
2022/03/31 04:20:20;;;;;;;17.73;14.05;;;;;;;;;;5118318;28;20052;-58
2022/03/31 04:22:46;;;;;;;15.35;13.75;;;;;;;;;;5117919;28;20024;-56
2022/03/31 04:25:18;;;;;;;16.88;13.38;;;;;;;;;;5117956;28;20370;-53
2022/03/31 04:27:44;;;;;;;15.52;13.88;;;;;;;;;;5115931;28;20176;-56
2022/03/31 04:30:31;;;;;;;17.13;14.55;;;;;;;;;;5116379;28;20381;-57
2022/03/31 04:32:57;;;;;;;19.58;13.68;;;;;;;;;;5116757;28;20024;-56
2022/03/31 04:35:28;;;;;;;13.00;11.70;;;;;;;;;;5117748;28;20112;-57
2022/03/31 04:37:56;;;;;;;18.67;13.82;;;;;;;;;;5118094;28;20115;-57
2022/03/31 04:40:26;;;;;;;14.85;13.30;;;;;;;;;;5116226;28;20036;-56
2022/03/31 04:42:52;;;;;;;19.40;13.98;;;;;;;;;;5117164;27;20023;-57
2022/03/31 04:45:18;;;;;;;16.00;14.30;;;;;;;;;;5116433;28;20038;-57
2022/03/31 04:47:45;;;;;;;17.08;14.40;;;;;;;;;;5117408;28;20027;-52
2022/03/31 04:50:14;;;;;;;19.90;13.15;;;;;;;;;;5115914;28;20089;-55
2022/03/31 04:52:50;;;;;;;15.50;13.18;;;;;;;;;;5116129;28;20071;-54
2022/03/31 04:55:32;;;;;;;16.90;12.90;;;;;;;;;;5118208;28;20038;-57
2022/03/31 04:58:01;;;;;;;14.18;12.75;;;;;;;;;;5118438;28;20077;-56
2022/03/31 05:01:00;;;;;;;18.02;13.45;;;;;;;;;;5117392;28;20035;-53
2022/03/31 05:03:27;;;;;;;17.45;14.00;;;;;;;;;;5117153;28;20434;-52
2022/03/31 05:06:01;;;;;;;21.90;15.93;;;;;;;;;;5115015;28;20046;-54
2022/03/31 05:08:30;;;;;;;15.50;14.00;;;;;;;;;;5115180;28;20506;-53
2022/03/31 05:11:10;;;;;;;17.80;14.20;;;;;;;;;;5117230;28;20035;-56
2022/03/31 05:13:38;;;;;;;18.17;15.00;;;;;;;;;;5117779;28;20353;-53
2022/03/31 05:16:10;;;;;;;17.45;14.90;;;;;;;;;;5117758;28;20373;-55
2022/03/31 05:18:51;;;;;;;18.88;14.50;;;;;;;;;;5116794;28;20048;-56
2022/03/31 05:21:20;;;;;;;16.77;14.77;;;;;;;;;;5117275;28;20350;-55
2022/03/31 05:23:52;;;;;;;19.38;13.93;;;;;;;;;;5116951;28;20027;-55
2022/03/31 05:26:21;;;;;;;20.05;14.80;;;;;;;;;;5116841;28;20030;-55
2022/03/31 05:28:58;;;;;;;16.38;13.98;;;;;;;;;;5109829;28;20473;-57
2022/03/31 05:31:27;;;;;;;18.65;15.13;;;;;;;;;;5116796;28;20024;-54
2022/03/31 05:33:56;;;;;;;17.42;14.68;;;;;;;;;;5115016;28;20062;-57
2022/03/31 05:36:32;;;;;;;19.83;15.45;;;;;;;;;;5116821;28;20119;-56
2022/03/31 05:39:03;;;;;;;18.02;13.65;;;;;;;;;;5117531;28;20359;-57
2022/03/31 05:41:39;;;;;;;17.30;14.60;;;;;;;;;;5115220;28;20019;-57
2022/03/31 05:44:09;;;;;;;18.42;14.30;;;;;;;;;;5114546;28;20040;-56
2022/03/31 05:46:38;;;;;;;17.02;15.15;;;;;;;;;;5116241;28;20035;-56
2022/03/31 05:49:05;;;;;;;19.67;14.70;;;;;;;;;;5116572;28;20035;-58
2022/03/31 05:51:37;;;;;;;17.30;14.55;;;;;;;;;;5115159;28;20144;-56
2022/03/31 05:54:20;;;;;;;21.52;16.55;;;;;;;;;;5117378;28;20023;-57
2022/03/31 05:56:46;;;;;;;19.02;15.77;;;;;;;;;;5117123;28;20020;-55
2022/03/31 05:59:18;;;;;;;15.38;13.75;;;;;;;;;;5116351;28;20030;-58
2022/03/31 06:02:02;;;;;;;20.77;14.57;;;;;;;;;;5117042;28;20023;-56
2022/03/31 06:04:33;;;;;;;18.88;14.88;;;;;;;;;;5116808;28;20027;-57
2022/03/31 06:07:05;;;;;;;16.90;14.00;;;;;;;;;;5115708;28;20038;-55
2022/03/31 06:09:38;;;;;;;20.70;14.90;;;;;;;;;;5116133;28;20020;-56
2022/03/31 06:12:07;;;;;;;17.90;14.05;;;;;;;;;;5115736;28;20511;-56
2022/03/31 06:14:49;;;;;;;19.90;14.32;;;;;;;;;;5114459;28;20089;-57
2022/03/31 06:17:18;;;;;;;15.15;13.52;;;;;;;;;;5114914;28;20039;-54
2022/03/31 06:19:51;;;;;;;15.93;13.93;;;;;;;;;;5114173;28;20043;-57
2022/03/31 06:22:18;;;;;;;20.98;13.30;;;;;;;;;;5113949;28;20035;-57
2022/03/31 06:24:44;;;;;;;16.05;14.05;;;;;;;;;;5115140;28;20369;-57
2022/03/31 06:27:18;;;;;;;16.48;14.50;;;;;;;;;;5114419;28;20031;-57
2022/03/31 06:29:48;;;;;;;16.00;13.85;;;;;;;;;;5114372;28;20034;-57
2022/03/31 06:32:19;;;;;;;19.73;16.30;;;;;;;;;;5114292;28;20075;-57
2022/03/31 06:34:49;;;;;;;19.67;14.48;;;;;;;;;;5115371;28;20031;-58
2022/03/31 06:37:20;;;;;;;17.02;14.15;;;;;;;;;;5114713;28;20020;-57
2022/03/31 06:40:05;;;;;;;16.58;14.80;;;;;;;;;;5115398;28;20024;-57
2022/03/31 06:42:32;;;;;;;19.02;14.85;;;;;;;;;;5114380;28;20466;-58
2022/03/31 06:45:12;;;;;;;15.73;13.55;;;;;;;;;;5113656;28;20032;-57
2022/03/31 06:47:41;;;;;;;20.52;15.30;;;;;;;;;;5115847;28;20032;-57
2022/03/31 06:50:10;;;;;;;18.90;13.50;;;;;;;;;;5115217;28;20027;-58
2022/03/31 06:52:42;;;;;;;17.45;13.13;;;;;;;;;;5113881;28;20012;-55
2022/03/31 06:55:16;;;;;;;20.45;14.63;;;;;;;;;;5098786;28;20039;-58
2022/03/31 06:57:51;;;;;;;20.88;15.98;;;;;;;;;;5113745;28;20114;-56
2022/03/31 07:00:18;;;;;;;15.13;13.63;;;;;;;;;;5115757;28;20026;-58
2022/03/31 07:02:50;;;;;;;18.25;14.63;;;;;;;;;;5115158;28;20077;-56
2022/03/31 07:05:22;;;;;;;19.25;15.02;;;;;;;;;;5114332;28;20030;-58
2022/03/31 07:10:38;;;;;;;19.45;16.45;;;;;;;;;;5112892;28;20407;-56
2022/03/31 07:13:10;;;;;;;21.25;15.38;;;;;;;;;;5112821;28;20043;-57
2022/03/31 07:15:45;;;;;;;16.63;14.05;;;;;;;;;;5115164;28;20027;-56
2022/03/31 07:18:14;;;;;;;23.85;17.23;;;;;;;;;;5114529;28;20045;-58
2022/03/31 07:20:44;;;;;;;19.45;16.17;;;;;;;;;;5112767;28;20044;-57
2022/03/31 07:23:15;;;;;;;18.10;13.15;;;;;;;;;;5113047;28;20028;-57
2022/03/31 07:25:42;;;;;;;22.25;16.65;;;;;;;;;;5114944;28;20106;-56
2022/03/31 07:28:08;;;;;;;21.40;15.45;;;;;;;;;;5115454;28;20053;-57
2022/03/31 07:30:37;;;;;;;17.42;13.85;;;;;;;;;;5113394;28;20115;-57
2022/03/31 07:33:08;;;;;;;13.95;12.48;;;;;;;;;;5114804;28;20047;-57
2022/03/31 07:35:34;;;;;;;;;;;;;;;;;;5113348;28;20023;-57
2022/03/31 07:38:07;;;;;;;18.63;13.43;;;;;;;;;;5112311;28;19904;-57
2022/03/31 07:40:44;;;;;;;17.90;15.27;;;;;;;;;;5114511;28;20020;-57
2022/03/31 07:43:17;;;;;;;18.75;14.73;;;;;;;;;;5112942;28;20465;-57
2022/03/31 07:46:07;;;;;;;17.10;15.23;;;;;;;;;;5113146;28;20027;-58
2022/03/31 07:48:33;;;;;;;19.23;14.93;;;;;;;;;;5112169;28;20122;-57
2022/03/31 07:51:08;;;;;;;16.98;13.82;;;;;;;;;;5113868;28;20055;-57
2022/03/31 07:53:45;;;;;;;18.55;13.75;;;;;;;;;;5112403;28;20028;-57
2022/03/31 07:56:19;;;;;;;18.80;15.07;;;;;;;;;;5111712;28;20107;-57
2022/03/31 07:58:46;;;;;;;17.02;13.55;;;;;;;;;;5114659;28;20027;-57
2022/03/31 08:01:17;;;;;;;18.60;14.68;;;;;;;;;;5112899;28;20036;-56
2022/03/31 08:03:53;;;;;;;18.73;14.60;;;;;;;;;;5114455;28;20024;-58
2022/03/31 08:06:54;;;;;;;17.10;14.82;;;;;;;;;;5112503;28;20122;-58
2022/03/31 08:09:25;;;;;;;17.80;14.70;;;;;;;;;;5094570;28;20066;-56
2022/03/31 08:11:52;;;;;;;19.23;14.80;;;;;;;;;;5112956;28;20111;-57
2022/03/31 08:14:21;;;;;;;17.98;14.85;;;;;;;;;;5114279;28;20466;-57
2022/03/31 08:16:51;;;;;;;19.70;16.30;;;;;;;;;;5113710;28;20020;-57
2022/03/31 08:19:20;;;;;;;19.92;13.90;;;;;;;;;;5112518;28;20043;-56
2022/03/31 08:21:47;;;;;;;19.67;15.43;;;;;;;;;;5113104;28;20074;-57
2022/03/31 08:24:21;;;;;;;22.27;15.65;;;;;;;;;;5112291;28;20030;-58
2022/03/31 08:26:50;;;;;;;16.98;14.90;;;;;;;;;;5113878;28;20084;-58
2022/03/31 08:29:34;;;;;;;19.58;14.68;;;;;;;;;;5112506;28;20023;-58
2022/03/31 08:32:21;;;;;;;20.63;17.35;;;;;;;;;;5114462;28;20098;-58
2022/03/31 08:34:50;;;;;;;19.13;13.50;;;;;;;;;;5113336;28;20034;-58
2022/03/31 08:37:19;;;;;;;21.05;15.15;;;;;;;;;;5113701;28;20026;-58
2022/03/31 08:39:51;;;;;;;19.73;14.90;;;;;;;;;;5113636;28;20373;-58
2022/03/31 08:42:30;;;;;;;17.20;13.80;;;;;;;;;;5113064;28;20032;-58
2022/03/31 08:44:57;;;;;;;21.27;17.60;;;;;;;;;;5112088;28;20126;-57
2022/03/31 08:47:29;;;;;;;16.33;14.32;;;;;;;;;;5112355;28;20046;-58
2022/03/31 08:50:03;;;;;;;18.83;16.15;;;;;;;;;;5112185;28;20026;-57
2022/03/31 08:52:37;;;;;;;19.80;16.30;;;;;;;;;;5112010;28;20110;-57
2022/03/31 08:55:03;;;;;;;21.27;14.98;;;;;;;;;;5113806;28;20424;-57
2022/03/31 08:57:49;;;;;;;16.30;13.60;;;;;;;;;;5111878;28;20024;-58
2022/03/31 09:00:21;;;;;;;19.17;15.98;;;;;;;;;;5114230;28;20035;-58
2022/03/31 09:02:54;;;;;;;17.90;15.57;;;;;;;;;;5116169;28;20023;-57
2022/03/31 09:05:23;;;;;;;20.00;15.18;;;;;;;;;;5117026;28;20026;-58
2022/03/31 09:08:00;;;;;;;19.58;16.20;;;;;;;;;;5117368;28;20027;-58
2022/03/31 09:10:31;;;;;;;17.73;15.63;;;;;;;;;;5116525;28;20388;-58
2022/03/31 09:13:06;;;;;;;23.35;15.73;;;;;;;;;;5117196;28;20023;-58
2022/03/31 09:15:32;;;;;;;20.10;16.35;;;;;;;;;;5115841;28;20488;-58
2022/03/31 09:17:59;;;;;;;23.08;17.67;;;;;;;;;;5098748;28;20034;-57
2022/03/31 09:20:37;;;;;;;16.30;14.57;;;;;;;;;;5115071;28;20127;-58
2022/03/31 09:23:17;;;;;;;21.17;16.48;;;;;;;;;;5117838;28;20024;-58
2022/03/31 09:25:46;;;;;;;21.92;15.60;;;;;;;;;;5116631;28;20457;-57
2022/03/31 09:28:20;;;;;;;18.17;15.30;;;;;;;;;;5115487;28;20032;-58
2022/03/31 09:30:47;;;;;;;18.73;15.48;;;;;;;;;;5116890;28;20023;-58
2022/03/31 09:33:34;;;;;;;20.23;16.80;;;;;;;;;;5115824;28;20115;-58
2022/03/31 09:36:02;;;;;;;22.42;17.50;;;;;;;;;;5116200;28;20031;-56
2022/03/31 09:38:28;;;;;;;19.25;16.63;;;;;;;;;;5098106;28;20168;-58
2022/03/31 09:41:12;;;;;;;19.52;16.15;;;;;;;;;;5116673;28;20027;-58
2022/03/31 09:43:46;;;;;;;18.60;15.80;;;;;;;;;;5117656;28;20030;-58
2022/03/31 09:46:33;;;;;;;;;;;;;;;;;;;;;
2022/03/31 09:49:09;;;;;;;25.02;17.45;;;;;;;;;;5114380;28;20036;-58
2022/03/31 09:51:38;;;;;;;26.23;17.92;;;;;;;;;;5114943;28;20032;-57
2022/03/31 09:54:07;;;;;;;21.00;16.73;;;;;;;;;;5116358;28;20393;-58
2022/03/31 09:56:35;;;;;;;17.15;14.88;;;;;;;;;;5097779;28;20079;-58
2022/03/31 09:59:02;;;;;;;22.52;15.45;;;;;;;;;;5114382;28;20031;-58
2022/03/31 10:01:31;;;;;;;17.70;14.43;;;;;;;;;;5116033;28;20032;-58
2022/03/31 10:04:00;;;;;;;19.27;15.82;;;;;;;;;;5114714;28;20461;-58
2022/03/31 10:06:40;;;;;;;19.83;16.60;;;;;;;;;;5115079;28;20064;-57
2022/03/31 10:09:13;;;;;;;20.77;16.50;;;;;;;;;;5116282;28;20031;-58
2022/03/31 10:11:47;;;;;;;21.83;17.05;;;;;;;;;;5114777;28;20058;-58
2022/03/31 10:14:25;;;;;;;21.15;15.00;;;;;;;;;;5114407;28;20031;-58
2022/03/31 10:16:57;;;;;;;21.15;16.85;;;;;;;;;;5116075;28;20020;-58
2022/03/31 10:19:26;;;;;;;;;;;;;;;;;;5115873;28;20055;-58
2022/03/31 10:25:08;;;;;;;23.23;15.05;;;;;;;;;;5115925;28;20434;-56
2022/03/31 10:27:34;;;;;;;;;;;;;;;;;;5115044;28;20028;-58
2022/03/31 10:30:11;;;;;;;21.48;16.40;;;;;;;;;;5114155;28;20365;-58
2022/03/31 10:32:37;;;;;;;21.65;14.43;;;;;;;;;;5114127;28;20024;-57
2022/03/31 10:35:04;;;;;;;20.30;15.07;;;;;;;;;;5114182;28;20049;-57
2022/03/31 10:37:39;;;;;;;18.58;15.02;;;;;;;;;;5115319;28;20019;-58
2022/03/31 10:40:21;;;;;;;18.80;14.10;;;;;;;;;;5114266;28;20019;-58
2022/03/31 10:42:55;;;;;;;18.60;15.27;;;;;;;;;;5115556;28;20020;-58
2022/03/31 10:45:21;;;;;;;18.70;15.95;;;;;;;;;;5097072;28;20027;-58
2022/03/31 10:47:50;;;;;;;17.35;15.07;;;;;;;;;;5113769;28;20027;-58
2022/03/31 10:50:25;;;;;;;19.08;14.85;;;;;;;;;;5113875;28;20055;-58
2022/03/31 10:53:00;;;;;;;17.35;14.68;;;;;;;;;;5114054;28;20119;-58
2022/03/31 10:55:34;;;;;;;20.35;15.27;;;;;;;;;;5115224;28;20031;-58
2022/03/31 10:58:07;;;;;;;18.08;14.57;;;;;;;;;;5115393;28;20020;-58
2022/03/31 11:00:36;;;;;;;20.92;15.57;;;;;;;;;;5113874;28;20027;-58
2022/03/31 11:03:06;;;;;;;18.98;13.90;;;;;;;;;;5113602;28;20050;-58
2022/03/31 11:05:33;;;;;;;19.40;14.43;;;;;;;;;;5114829;28;20027;-58
2022/03/31 11:08:05;;;;;;;23.10;16.33;;;;;;;;;;5113705;28;20431;-57
2022/03/31 11:10:55;;;;;;;20.83;16.40;;;;;;;;;;5114661;28;20020;-58
2022/03/31 11:13:39;;;;;;;21.33;16.33;;;;;;;;;;5101879;28;20032;-58
2022/03/31 11:16:06;;;;;;;19.65;14.40;;;;;;;;;;5114077;28;20028;-58
2022/03/31 11:18:32;;;;;;;18.15;15.52;;;;;;;;;;5114571;28;20068;-58
2022/03/31 11:21:02;;;;;;;19.58;15.27;;;;;;;;;;5114537;28;20053;-58
2022/03/31 11:23:31;;;;;;;18.73;14.35;;;;;;;;;;5114518;28;20026;-58
2022/03/31 11:26:06;;;;;;;21.77;15.23;;;;;;;;;;5114605;28;20067;-58
2022/03/31 11:28:38;;;;;;;20.85;15.38;;;;;;;;;;5114689;28;20057;-58
2022/03/31 11:31:20;;;;;;;18.98;15.07;;;;;;;;;;5114398;28;20024;-58
2022/03/31 11:33:49;;;;;;;20.15;14.43;;;;;;;;;;5113698;28;20423;-58
2022/03/31 11:36:20;;;;;;;20.30;15.82;;;;;;;;;;5114485;28;20046;-58
2022/03/31 11:39:03;;;;;;;17.38;15.52;;;;;;;;;;5113523;28;20058;-58
2022/03/31 11:41:59;;;;;;;19.60;15.73;;;;;;;;;;5114941;28;20024;-58
2022/03/31 11:44:28;;;;;;;19.45;15.10;;;;;;;;;;5098060;28;20427;-58
2022/03/31 11:46:54;;;;;;;21.20;16.02;;;;;;;;;;5113116;28;20040;-58
2022/03/31 11:49:24;;;;;;;17.85;13.73;;;;;;;;;;5114083;28;20080;-58
2022/03/31 11:52:05;;;;;;;22.10;13.77;;;;;;;;;;5114337;28;20366;-58
2022/03/31 11:54:34;;;;;;;17.08;13.07;;;;;;;;;;5113723;28;20052;-58
2022/03/31 11:57:14;;;;;;;17.88;13.73;;;;;;;;;;5113872;28;20076;-58
2022/03/31 11:59:40;;;;;;;16.05;13.88;;;;;;;;;;5113926;28;20031;-59
2022/03/31 12:02:19;;;;;;;22.27;16.35;;;;;;;;;;5112985;28;20521;-58
2022/03/31 12:04:47;;;;;;;20.23;14.18;;;;;;;;;;5096446;28;20055;-59
2022/03/31 12:07:29;;;;;;;19.17;16.23;;;;;;;;;;5114111;28;20050;-58
2022/03/31 12:10:02;;;;;;;18.55;14.20;;;;;;;;;;5112958;28;20024;-58
2022/03/31 12:12:31;;;;;;;18.67;14.57;;;;;;;;;;5113079;28;20070;-58
2022/03/31 12:15:00;;;;;;;20.02;17.25;;;;;;;;;;5112573;28;20028;-58
2022/03/31 12:17:29;;;;;;;19.80;15.68;;;;;;;;;;5113991;28;20023;-58
2022/03/31 12:19:57;;;;;;;19.67;15.45;;;;;;;;;;5112354;28;20089;-59
2022/03/31 12:22:38;;;;;;;20.30;16.10;;;;;;;;;;5113932;28;20034;-58
2022/03/31 12:25:07;;;;;;;17.25;15.00;;;;;;;;;;5114663;28;20027;-58
2022/03/31 12:27:45;;;;;;;16.55;14.02;;;;;;;;;;5114029;28;20032;-58
2022/03/31 12:30:12;;;;;;;17.45;13.88;;;;;;;;;;5113711;28;20020;-58
2022/03/31 12:32:51;;;;;;;18.35;15.68;;;;;;;;;;5113851;28;20081;-58
2022/03/31 12:35:18;;;;;;;18.10;16.23;;;;;;;;;;5115157;28;20016;-58
2022/03/31 12:37:48;;;;;;;21.38;14.95;;;;;;;;;;5116248;28;20023;-58
2022/03/31 12:40:17;;;;;;;21.45;15.40;;;;;;;;;;5117346;28;20030;-57
2022/03/31 12:42:54;;;;;;;18.73;16.15;;;;;;;;;;5117421;28;20024;-58
2022/03/31 12:45:20;;;;;;;20.48;15.98;;;;;;;;;;5116312;28;20023;-58
2022/03/31 12:47:47;;;;;;;19.80;15.15;;;;;;;;;;5116125;28;20158;-58
2022/03/31 12:50:21;;;;;;;18.08;15.18;;;;;;;;;;5116914;28;20470;-58
2022/03/31 12:52:58;;;;;;;22.00;16.55;;;;;;;;;;5117533;28;20016;-58
2022/03/31 12:55:35;;;;;;;22.08;16.42;;;;;;;;;;5117752;28;20070;-58
2022/03/31 12:58:04;;;;;;;18.77;14.40;;;;;;;;;;5116718;28;20057;-58
2022/03/31 13:00:32;;;;;;;21.45;16.17;;;;;;;;;;5117552;28;20024;-58
2022/03/31 13:03:01;;;;;;;21.38;16.65;;;;;;;;;;5116836;28;20027;-58
2022/03/31 13:05:30;;;;;;;17.17;14.00;;;;;;;;;;5099638;28;20085;-57
2022/03/31 13:07:59;;;;;;;18.20;15.07;;;;;;;;;;5115861;28;20507;-58
2022/03/31 13:10:27;;;;;;;23.25;17.17;;;;;;;;;;5117545;28;20023;-58
2022/03/31 13:12:54;;;;;;;22.25;16.45;;;;;;;;;;5115928;28;20044;-58
2022/03/31 13:15:24;;;;;;;19.30;14.95;;;;;;;;;;5099481;28;20104;-58
2022/03/31 13:17:58;;;;;;;20.05;16.42;;;;;;;;;;5117256;28;20068;-58
2022/03/31 13:20:24;;;;;;;21.50;18.15;;;;;;;;;;5117037;28;20048;-58
2022/03/31 13:22:51;;;;;;;22.17;17.00;;;;;;;;;;5117097;28;20046;-58
2022/03/31 13:25:25;;;;;;;21.90;16.83;;;;;;;;;;5117021;28;20053;-58
2022/03/31 13:27:52;;;;;;;19.35;15.70;;;;;;;;;;5115433;28;20042;-58
2022/03/31 13:30:18;;;;;;;19.05;15.98;;;;;;;;;;5117017;28;20068;-58
2022/03/31 13:32:44;;;;;;;19.95;14.63;;;;;;;;;;5116993;28;20027;-59
2022/03/31 13:35:15;;;;;;;17.10;14.32;;;;;;;;;;5116909;28;20055;-58
2022/03/31 13:37:43;;;;;;;20.70;15.38;;;;;;;;;;5115638;28;20469;-58
2022/03/31 13:40:12;;;;;;;20.15;14.23;;;;;;;;;;5117399;28;20026;-59
2022/03/31 13:42:41;;;;;;;20.63;14.55;;;;;;;;;;5116954;28;20027;-59
2022/03/31 13:45:11;;;;;;;29.88;18.13;;;;;;;;;;5116345;28;20069;-59
2022/03/31 13:47:38;;;;;;;17.35;13.82;;;;;;;;;;5114173;28;20081;-58
2022/03/31 13:50:04;;;;;;;20.27;15.02;;;;;;;;;;5098270;28;20027;-58
2022/03/31 13:52:33;;;;;;;22.63;13.30;;;;;;;;;;5117381;28;20020;-58
2022/03/31 13:54:59;;;;;;;23.70;15.65;;;;;;;;;;5116666;27;20030;-58
2022/03/31 14:03:01;;;;;;;20.20;15.02;;;;;;;;;;5116440;28;20093;-58
2022/03/31 14:05:28;;;;;;;19.67;14.60;;;;;;;;;;5114473;28;20063;-58
2022/03/31 14:07:56;;;;;;;18.75;15.73;;;;;;;;;;5116265;28;20051;-58
2022/03/31 14:10:22;;;;;;;18.60;16.60;;;;;;;;;;5116193;28;20068;-58
2022/03/31 14:12:48;;;;;;;17.15;14.32;;;;;;;;;;5115953;28;20027;-58
2022/03/31 14:15:16;;;;;;;17.48;13.93;;;;;;;;;;5115718;28;20035;-58
2022/03/31 14:17:42;;;;;;;18.85;16.60;;;;;;;;;;5115817;28;20459;-58
2022/03/31 14:20:12;;;;;;;19.00;15.73;;;;;;;;;;5114652;28;20083;-58
2022/03/31 14:22:40;;;;;;;15.68;13.60;;;;;;;;;;5115854;28;20453;-58
2022/03/31 14:25:06;;;;;;;19.27;13.88;;;;;;;;;;5114405;28;20024;-58
2022/03/31 14:27:32;;;;;;;18.65;13.10;;;;;;;;;;5116548;28;20035;-58
2022/03/31 14:30:00;;;;;;;18.17;14.70;;;;;;;;;;5115819;28;20084;-58
2022/03/31 14:32:26;;;;;;;17.70;14.10;;;;;;;;;;5114484;28;20483;-58
2022/03/31 14:34:53;;;;;;;24.67;15.82;;;;;;;;;;5114627;28;20024;-58
2022/03/31 14:37:23;;;;;;;19.00;15.75;;;;;;;;;;5114247;28;20457;-58
2022/03/31 14:39:49;;;;;;;19.75;16.08;;;;;;;;;;5116062;28;20020;-58
2022/03/31 14:42:15;;;;;;;18.10;15.18;;;;;;;;;;5114690;28;20118;-58
2022/03/31 14:44:44;;;;;;;19.73;15.10;;;;;;;;;;5116437;28;20364;-58
2022/03/31 14:47:10;;;;;;;24.50;16.05;;;;;;;;;;5115570;28;20072;-58
2022/03/31 14:49:39;;;;;;;22.50;16.00;;;;;;;;;;5115151;28;20032;-58
2022/03/31 14:52:05;;;;;;;17.35;15.07;;;;;;;;;;5115299;28;20043;-58
2022/03/31 14:54:34;;;;;;;22.83;15.30;;;;;;;;;;5114870;28;20042;-58
2022/03/31 14:57:00;;;;;;;25.73;16.35;;;;;;;;;;5114908;28;20362;-58
2022/03/31 14:59:27;;;;;;;19.77;15.70;;;;;;;;;;5114856;28;20020;-57